FHA5128 EDDM-LEPA
Flight info
| Callsign | FHA5128 |
|---|---|
| Flight time | 1h 53m |
| Altitude | 37000 |
| Route | TURBU7Q TURBU Y107 TOBSO DCT BAKOR DCT SUMIR DCT MISPO DCT PIDAD DCT TALEP DCT RARQU DCT BALEN UT250 RIXOT RIXOT3M |
| Aircraft | A320/M-SDE3FGHIRWY/LB1 |
Departure
| Time | 2026-05-01 11:32 |
|---|---|
| Airport | Munich Airport (EDDM) |
Arrival
| Time | 2026-05-01 13:25 |
|---|---|
| Airport | Palma de Mallorca Airport (LEPA) |
| Time | Latitude | Longitude | Altitude | Speed | Heading |
|---|---|---|---|---|---|
| 2026-05-01 10:39 | 48.35112 | 11.77944 | 1472 ft | 0 kts | 83° |
| 2026-05-01 10:48 | 48.35111 | 11.77946 | 1472 ft | 0 kts | 83° |
| 2026-05-01 11:19 | 48.35109 | 11.77913 | 1474 ft | 4 kts | 83° |
| 2026-05-01 11:19 | 48.35106 | 11.77879 | 1480 ft | 4 kts | 96° |
| 2026-05-01 11:20 | 48.35115 | 11.77857 | 1472 ft | 4 kts | 176° |
| 2026-05-01 11:20 | 48.35140 | 11.77855 | 1481 ft | 4 kts | 173° |
| 2026-05-01 11:20 | 48.35154 | 11.77852 | 1477 ft | 0 kts | 173° |
| 2026-05-01 11:23 | 48.35136 | 11.77855 | 1477 ft | 8 kts | 173° |
| 2026-05-01 11:23 | 48.35046 | 11.77871 | 1479 ft | 16 kts | 173° |
| 2026-05-01 11:24 | 48.34945 | 11.77889 | 1474 ft | 13 kts | 173° |
| 2026-05-01 11:24 | 48.34855 | 11.77880 | 1485 ft | 11 kts | 191° |
| 2026-05-01 11:24 | 48.34828 | 11.77876 | 1485 ft | 0 kts | 176° |
| 2026-05-01 11:25 | 48.34764 | 11.77882 | 1485 ft | 1 kts | 176° |
| 2026-05-01 11:25 | 48.34696 | 11.77885 | 1485 ft | 21 kts | 194° |
| 2026-05-01 11:26 | 48.34642 | 11.77605 | 1485 ft | 33 kts | 262° |
| 2026-05-01 11:26 | 48.34586 | 11.76891 | 1485 ft | 36 kts | 263° |
| 2026-05-01 11:26 | 48.34555 | 11.76512 | 1481 ft | 38 kts | 263° |
| 2026-05-01 11:27 | 48.34523 | 11.76112 | 1485 ft | 39 kts | 264° |
| 2026-05-01 11:27 | 48.34494 | 11.75694 | 1471 ft | 41 kts | 263° |
| 2026-05-01 11:27 | 48.34460 | 11.75314 | 1482 ft | 28 kts | 255° |
| 2026-05-01 11:27 | 48.34337 | 11.75236 | 1485 ft | 20 kts | 173° |
| 2026-05-01 11:28 | 48.34264 | 11.75247 | 1474 ft | 1 kts | 174° |
| 2026-05-01 11:28 | 48.34231 | 11.75253 | 1485 ft | 11 kts | 173° |
| 2026-05-01 11:28 | 48.34205 | 11.75257 | 1479 ft | 0 kts | 173° |
| 2026-05-01 11:29 | 48.34204 | 11.75257 | 1480 ft | 2 kts | 173° |
| 2026-05-01 11:30 | 48.34148 | 11.75268 | 1485 ft | 11 kts | 168° |
| 2026-05-01 11:30 | 48.34092 | 11.75345 | 1483 ft | 12 kts | 97° |
| 2026-05-01 11:30 | 48.34093 | 11.75398 | 1485 ft | 0 kts | 83° |
| 2026-05-01 11:31 | 48.34093 | 11.75399 | 1485 ft | 1 kts | 83° |
| 2026-05-01 11:31 | 48.34107 | 11.75576 | 1475 ft | 49 kts | 84° |
| 2026-05-01 11:32 | 48.34170 | 11.76419 | 1486 ft | 110 kts | 83° |
| 2026-05-01 11:32 | 48.34278 | 11.77800 | 1478 ft | 155 kts | 84° |
| 2026-05-01 11:32 | 48.34427 | 11.79436 | 2005 ft | 159 kts | 79° |
| 2026-05-01 11:32 | 48.34646 | 11.81069 | 2743 ft | 161 kts | 77° |
| 2026-05-01 11:33 | 48.34943 | 11.82714 | 3432 ft | 165 kts | 75° |
| 2026-05-01 11:33 | 48.35315 | 11.84365 | 4077 ft | 169 kts | 73° |
| 2026-05-01 11:33 | 48.35507 | 11.86179 | 4431 ft | 187 kts | 97° |
| 2026-05-01 11:33 | 48.35003 | 11.88083 | 4749 ft | 209 kts | 122° |
| 2026-05-01 11:34 | 48.34139 | 11.89994 | 5126 ft | 234 kts | 124° |
| 2026-05-01 11:34 | 48.33154 | 11.92057 | 5773 ft | 248 kts | 124° |
| 2026-05-01 11:34 | 48.32128 | 11.94192 | 6634 ft | 256 kts | 124° |
| 2026-05-01 11:34 | 48.31098 | 11.96312 | 7183 ft | 264 kts | 124° |
| 2026-05-01 11:35 | 48.30085 | 11.98393 | 7328 ft | 265 kts | 124° |
| 2026-05-01 11:35 | 48.28978 | 12.00604 | 7370 ft | 265 kts | 132° |
| 2026-05-01 11:35 | 48.27493 | 12.02169 | 7376 ft | 268 kts | 155° |
| 2026-05-01 11:35 | 48.25641 | 12.02642 | 7477 ft | 279 kts | 180° |
| 2026-05-01 11:36 | 48.23690 | 12.02482 | 8322 ft | 282 kts | 179° |
| 2026-05-01 11:36 | 48.21717 | 12.02352 | 9227 ft | 286 kts | 179° |
| 2026-05-01 11:36 | 48.19714 | 12.02237 | 10047 ft | 290 kts | 178° |
| 2026-05-01 11:36 | 48.17675 | 12.02124 | 10773 ft | 296 kts | 179° |
| 2026-05-01 11:37 | 48.15603 | 12.02007 | 11506 ft | 300 kts | 179° |
| 2026-05-01 11:37 | 48.13492 | 12.01885 | 12230 ft | 306 kts | 179° |
| 2026-05-01 11:37 | 48.11349 | 12.01758 | 12933 ft | 312 kts | 179° |
| 2026-05-01 11:37 | 48.09189 | 12.01626 | 13632 ft | 317 kts | 179° |
| 2026-05-01 11:38 | 48.06976 | 12.01361 | 14328 ft | 324 kts | 187° |
| 2026-05-01 11:38 | 48.04721 | 12.00525 | 14586 ft | 345 kts | 193° |
| 2026-05-01 11:38 | 48.02342 | 11.99521 | 14824 ft | 363 kts | 194° |
| 2026-05-01 11:38 | 48.00143 | 11.98580 | 15293 ft | 369 kts | 194° |
| 2026-05-01 11:39 | 47.97657 | 11.97517 | 15894 ft | 374 kts | 194° |
| 2026-05-01 11:39 | 47.95143 | 11.96450 | 16514 ft | 377 kts | 193° |
| 2026-05-01 11:39 | 47.92600 | 11.95402 | 17136 ft | 380 kts | 190° |
| 2026-05-01 11:39 | 47.89983 | 11.94847 | 17746 ft | 380 kts | 179° |
| 2026-05-01 11:40 | 47.87367 | 11.94792 | 18377 ft | 383 kts | 177° |
| 2026-05-01 11:40 | 47.84690 | 11.94753 | 18961 ft | 386 kts | 177° |
| 2026-05-01 11:40 | 47.81990 | 11.94705 | 19512 ft | 390 kts | 178° |
| 2026-05-01 11:40 | 47.79260 | 11.94651 | 20061 ft | 394 kts | 178° |
| 2026-05-01 11:41 | 47.76504 | 11.94594 | 20623 ft | 398 kts | 178° |
| 2026-05-01 11:41 | 47.73725 | 11.94537 | 21162 ft | 402 kts | 178° |
| 2026-05-01 11:41 | 47.70916 | 11.94482 | 21672 ft | 405 kts | 178° |
| 2026-05-01 11:41 | 47.68082 | 11.94432 | 22200 ft | 409 kts | 178° |
| 2026-05-01 11:42 | 47.65221 | 11.94382 | 22747 ft | 413 kts | 178° |
| 2026-05-01 11:42 | 47.62377 | 11.94333 | 23266 ft | 417 kts | 178° |
| 2026-05-01 11:42 | 47.59463 | 11.94287 | 23824 ft | 420 kts | 178° |
| 2026-05-01 11:42 | 47.56525 | 11.94243 | 24237 ft | 424 kts | 178° |
| 2026-05-01 11:43 | 47.53560 | 11.94195 | 24655 ft | 428 kts | 178° |
| 2026-05-01 11:43 | 47.50576 | 11.94141 | 25121 ft | 430 kts | 178° |
| 2026-05-01 11:43 | 47.47573 | 11.94087 | 25525 ft | 433 kts | 178° |
| 2026-05-01 11:44 | 47.41510 | 11.93699 | 26373 ft | 441 kts | 185° |
| 2026-05-01 11:44 | 47.38459 | 11.93080 | 26807 ft | 444 kts | 185° |
| 2026-05-01 11:44 | 47.35430 | 11.92470 | 27218 ft | 447 kts | 185° |
| 2026-05-01 11:44 | 47.32339 | 11.91850 | 27606 ft | 449 kts | 186° |
| 2026-05-01 11:45 | 47.29231 | 11.91228 | 27963 ft | 452 kts | 186° |
| 2026-05-01 11:45 | 47.26104 | 11.90601 | 28375 ft | 455 kts | 185° |
| 2026-05-01 11:45 | 47.22961 | 11.89974 | 28765 ft | 457 kts | 185° |
| 2026-05-01 11:45 | 47.19799 | 11.89352 | 29131 ft | 460 kts | 186° |
| 2026-05-01 11:46 | 47.16612 | 11.88724 | 29494 ft | 463 kts | 186° |
| 2026-05-01 11:46 | 47.13412 | 11.88092 | 29890 ft | 466 kts | 185° |
| 2026-05-01 11:46 | 47.10233 | 11.87468 | 30227 ft | 468 kts | 185° |
| 2026-05-01 11:46 | 47.06997 | 11.86830 | 30574 ft | 471 kts | 186° |
| 2026-05-01 11:47 | 47.03741 | 11.86187 | 30872 ft | 474 kts | 186° |
| 2026-05-01 11:47 | 47.00470 | 11.85500 | 31208 ft | 476 kts | 187° |
| 2026-05-01 11:47 | 46.97192 | 11.84633 | 31502 ft | 480 kts | 189° |
| 2026-05-01 11:47 | 46.93927 | 11.83609 | 31845 ft | 481 kts | 191° |
| 2026-05-01 11:48 | 46.90669 | 11.82489 | 32245 ft | 481 kts | 192° |
| 2026-05-01 11:48 | 46.87417 | 11.81343 | 32673 ft | 480 kts | 191° |
| 2026-05-01 11:48 | 46.84211 | 11.80235 | 33074 ft | 479 kts | 191° |
| 2026-05-01 11:48 | 46.80961 | 11.79150 | 33506 ft | 479 kts | 190° |
| 2026-05-01 11:49 | 46.77706 | 11.78102 | 33944 ft | 479 kts | 190° |
| 2026-05-01 11:49 | 46.74441 | 11.77081 | 34236 ft | 481 kts | 189° |
| 2026-05-01 11:49 | 46.71162 | 11.76067 | 34601 ft | 481 kts | 189° |
| 2026-05-01 11:49 | 46.67895 | 11.75059 | 35006 ft | 479 kts | 189° |
| 2026-05-01 11:50 | 46.64642 | 11.74020 | 35401 ft | 478 kts | 193° |
| 2026-05-01 11:50 | 46.61489 | 11.72467 | 35745 ft | 479 kts | 203° |
| 2026-05-01 11:50 | 46.58537 | 11.70248 | 36089 ft | 478 kts | 212° |
| 2026-05-01 11:50 | 46.55854 | 11.67522 | 36425 ft | 477 kts | 217° |
| 2026-05-01 11:51 | 46.53184 | 11.64667 | 36798 ft | 475 kts | 217° |
| 2026-05-01 11:51 | 46.50522 | 11.61840 | 37159 ft | 474 kts | 217° |
| 2026-05-01 11:51 | 46.47857 | 11.59031 | 37303 ft | 472 kts | 216° |
| 2026-05-01 11:51 | 46.45199 | 11.56236 | 37329 ft | 472 kts | 217° |
| 2026-05-01 11:52 | 46.39890 | 11.50658 | 37319 ft | 471 kts | 217° |
| 2026-05-01 11:52 | 46.34588 | 11.45094 | 37329 ft | 471 kts | 217° |
| 2026-05-01 11:53 | 46.29313 | 11.39564 | 37333 ft | 472 kts | 217° |
| 2026-05-01 11:53 | 46.24004 | 11.34002 | 37339 ft | 472 kts | 217° |
| 2026-05-01 11:54 | 46.18713 | 11.28381 | 37344 ft | 472 kts | 217° |
| 2026-05-01 11:54 | 46.13436 | 11.22745 | 37378 ft | 472 kts | 217° |
| 2026-05-01 11:55 | 46.08146 | 11.17132 | 37358 ft | 472 kts | 217° |
| 2026-05-01 11:55 | 46.02893 | 11.11597 | 37382 ft | 471 kts | 217° |
| 2026-05-01 11:56 | 45.97610 | 11.06050 | 37381 ft | 469 kts | 217° |
| 2026-05-01 11:56 | 45.92340 | 11.00521 | 37387 ft | 469 kts | 217° |
| 2026-05-01 11:57 | 45.87084 | 10.95001 | 37386 ft | 468 kts | 217° |
| 2026-05-01 11:57 | 45.81861 | 10.89539 | 37390 ft | 468 kts | 217° |
| 2026-05-01 11:58 | 45.76592 | 10.84056 | 37392 ft | 468 kts | 217° |
| 2026-05-01 11:59 | 45.68748 | 10.75899 | 37388 ft | 468 kts | 217° |
| 2026-05-01 11:59 | 45.63514 | 10.70470 | 37389 ft | 468 kts | 217° |
| 2026-05-01 12:00 | 45.55615 | 10.62316 | 37403 ft | 467 kts | 217° |
| 2026-05-01 12:01 | 45.47706 | 10.54174 | 37372 ft | 467 kts | 218° |
| 2026-05-01 12:01 | 45.42449 | 10.48772 | 37407 ft | 465 kts | 218° |
| 2026-05-01 12:02 | 45.37245 | 10.43444 | 37415 ft | 463 kts | 218° |
| 2026-05-01 12:02 | 45.32017 | 10.38112 | 37406 ft | 462 kts | 218° |
| 2026-05-01 12:03 | 45.26804 | 10.32786 | 37401 ft | 461 kts | 218° |
| 2026-05-01 12:03 | 45.21597 | 10.27472 | 37397 ft | 461 kts | 218° |
| 2026-05-01 12:04 | 45.16414 | 10.22212 | 37390 ft | 461 kts | 218° |
| 2026-05-01 12:04 | 45.11197 | 10.16941 | 37378 ft | 461 kts | 218° |
| 2026-05-01 12:05 | 45.05975 | 10.11670 | 37379 ft | 461 kts | 218° |
| 2026-05-01 12:05 | 44.98153 | 10.03794 | 37394 ft | 460 kts | 218° |
| 2026-05-01 12:06 | 44.92978 | 9.98578 | 37396 ft | 460 kts | 218° |
| 2026-05-01 12:06 | 44.87770 | 9.93333 | 37377 ft | 460 kts | 218° |
| 2026-05-01 12:07 | 44.82561 | 9.88116 | 37395 ft | 459 kts | 218° |
| 2026-05-01 12:07 | 44.77367 | 9.82922 | 37398 ft | 458 kts | 218° |
| 2026-05-01 12:08 | 44.72212 | 9.77760 | 37395 ft | 457 kts | 218° |
| 2026-05-01 12:08 | 44.67021 | 9.72592 | 37389 ft | 457 kts | 218° |
| 2026-05-01 12:09 | 44.61834 | 9.67435 | 37374 ft | 457 kts | 218° |
| 2026-05-01 12:09 | 44.56639 | 9.62283 | 37364 ft | 457 kts | 218° |
| 2026-05-01 12:10 | 44.48876 | 9.54605 | 37362 ft | 458 kts | 218° |
| 2026-05-01 12:11 | 44.41072 | 9.46908 | 37352 ft | 458 kts | 218° |
| 2026-05-01 12:11 | 44.35861 | 9.41782 | 37334 ft | 457 kts | 218° |
| 2026-05-01 12:12 | 44.30655 | 9.36680 | 37344 ft | 457 kts | 218° |
| 2026-05-01 12:12 | 44.25485 | 9.31617 | 37347 ft | 457 kts | 218° |
| 2026-05-01 12:13 | 44.20285 | 9.26539 | 37344 ft | 456 kts | 218° |
| 2026-05-01 12:13 | 44.15076 | 9.21471 | 37343 ft | 457 kts | 218° |
| 2026-05-01 12:14 | 44.09871 | 9.16410 | 37347 ft | 457 kts | 218° |
| 2026-05-01 12:14 | 44.04664 | 9.11349 | 37346 ft | 457 kts | 218° |
| 2026-05-01 12:15 | 43.99488 | 9.06346 | 37341 ft | 456 kts | 218° |
| 2026-05-01 12:15 | 43.94290 | 9.01327 | 37358 ft | 454 kts | 218° |
| 2026-05-01 12:16 | 43.89110 | 8.96331 | 37360 ft | 453 kts | 218° |
| 2026-05-01 12:16 | 43.83934 | 8.91347 | 37362 ft | 453 kts | 218° |
| 2026-05-01 12:17 | 43.78789 | 8.86406 | 37355 ft | 453 kts | 218° |
| 2026-05-01 12:17 | 43.73605 | 8.81452 | 37352 ft | 453 kts | 218° |
| 2026-05-01 12:18 | 43.68422 | 8.76503 | 37353 ft | 453 kts | 218° |
| 2026-05-01 12:18 | 43.62808 | 8.72504 | 37351 ft | 460 kts | 200° |
| 2026-05-01 12:19 | 43.59689 | 8.71492 | 37330 ft | 462 kts | 189° |
| 2026-05-01 12:19 | 43.56478 | 8.71209 | 37335 ft | 464 kts | 181° |
| 2026-05-01 12:19 | 43.53269 | 8.70953 | 37338 ft | 459 kts | 195° |
| 2026-05-01 12:19 | 43.50331 | 8.69393 | 37338 ft | 450 kts | 213° |
| 2026-05-01 12:20 | 43.45039 | 8.64836 | 37330 ft | 452 kts | 210° |
| 2026-05-01 12:20 | 43.39469 | 8.60940 | 37329 ft | 453 kts | 210° |
| 2026-05-01 12:21 | 43.34194 | 8.56362 | 37326 ft | 445 kts | 225° |
| 2026-05-01 12:21 | 43.29578 | 8.50677 | 37326 ft | 446 kts | 226° |
| 2026-05-01 12:22 | 43.24973 | 8.44980 | 37329 ft | 446 kts | 226° |
| 2026-05-01 12:22 | 43.20385 | 8.39344 | 37336 ft | 446 kts | 226° |
| 2026-05-01 12:23 | 43.15735 | 8.33649 | 37328 ft | 445 kts | 226° |
| 2026-05-01 12:23 | 43.11152 | 8.28040 | 37333 ft | 444 kts | 226° |
| 2026-05-01 12:24 | 43.06543 | 8.22427 | 37342 ft | 443 kts | 226° |
| 2026-05-01 12:24 | 43.01933 | 8.16828 | 37337 ft | 443 kts | 226° |
| 2026-05-01 12:25 | 42.95033 | 8.08458 | 37329 ft | 442 kts | 226° |
| 2026-05-01 12:26 | 42.90472 | 8.02922 | 37328 ft | 442 kts | 226° |
| 2026-05-01 12:26 | 42.83582 | 7.94586 | 37313 ft | 441 kts | 225° |
| 2026-05-01 12:27 | 42.76688 | 7.86293 | 37322 ft | 440 kts | 225° |
| 2026-05-01 12:28 | 42.69806 | 7.78026 | 37316 ft | 439 kts | 225° |
| 2026-05-01 12:29 | 42.62958 | 7.69838 | 37320 ft | 439 kts | 226° |
| 2026-05-01 12:29 | 42.56086 | 7.61638 | 37315 ft | 438 kts | 225° |
| 2026-05-01 12:30 | 42.49226 | 7.53481 | 37312 ft | 437 kts | 225° |
| 2026-05-01 12:31 | 42.44663 | 7.48060 | 37315 ft | 436 kts | 225° |
| 2026-05-01 12:31 | 42.40140 | 7.42699 | 37313 ft | 435 kts | 225° |
| 2026-05-01 12:32 | 42.35588 | 7.37308 | 37306 ft | 434 kts | 225° |
| 2026-05-01 12:32 | 42.28755 | 7.29267 | 37307 ft | 434 kts | 225° |
| 2026-05-01 12:33 | 42.24207 | 7.23916 | 37304 ft | 434 kts | 225° |
| 2026-05-01 12:33 | 42.19655 | 7.18572 | 37303 ft | 434 kts | 225° |
| 2026-05-01 12:34 | 42.15129 | 7.13275 | 37304 ft | 434 kts | 225° |
| 2026-05-01 12:34 | 42.10575 | 7.07954 | 37302 ft | 433 kts | 225° |
| 2026-05-01 12:35 | 42.06017 | 7.02640 | 37303 ft | 433 kts | 224° |
| 2026-05-01 12:35 | 42.01460 | 6.97337 | 37302 ft | 433 kts | 225° |
| 2026-05-01 12:36 | 41.96987 | 6.91923 | 37297 ft | 432 kts | 226° |
| 2026-05-01 12:36 | 41.92610 | 6.86468 | 37300 ft | 432 kts | 226° |
| 2026-05-01 12:37 | 41.88191 | 6.81001 | 37293 ft | 432 kts | 225° |
| 2026-05-01 12:37 | 41.83746 | 6.75573 | 37297 ft | 432 kts | 225° |
| 2026-05-01 12:38 | 41.79290 | 6.70163 | 37299 ft | 432 kts | 225° |
| 2026-05-01 12:38 | 41.74838 | 6.64762 | 37292 ft | 432 kts | 225° |
| 2026-05-01 12:39 | 41.70420 | 6.59401 | 37298 ft | 431 kts | 225° |
| 2026-05-01 12:39 | 41.65975 | 6.54005 | 37296 ft | 431 kts | 225° |
| 2026-05-01 12:40 | 41.61527 | 6.48621 | 37299 ft | 431 kts | 225° |
| 2026-05-01 12:40 | 41.57074 | 6.43255 | 37297 ft | 431 kts | 225° |
| 2026-05-01 12:41 | 41.52634 | 6.37899 | 37299 ft | 430 kts | 225° |
| 2026-05-01 12:41 | 41.48219 | 6.32597 | 37297 ft | 429 kts | 225° |
| 2026-05-01 12:42 | 41.43782 | 6.27272 | 37297 ft | 429 kts | 225° |
| 2026-05-01 12:42 | 41.39344 | 6.21958 | 37286 ft | 429 kts | 225° |
| 2026-05-01 12:43 | 41.34906 | 6.16652 | 37287 ft | 428 kts | 225° |
| 2026-05-01 12:43 | 41.30468 | 6.11367 | 37289 ft | 428 kts | 225° |
| 2026-05-01 12:44 | 41.25975 | 6.06011 | 36722 ft | 442 kts | 225° |
| 2026-05-01 12:44 | 41.21418 | 6.00578 | 35705 ft | 442 kts | 225° |
| 2026-05-01 12:45 | 41.16874 | 5.95196 | 34717 ft | 433 kts | 224° |
| 2026-05-01 12:45 | 41.14636 | 5.92554 | 34235 ft | 429 kts | 225° |
| 2026-05-01 12:45 | 41.12409 | 5.89919 | 33697 ft | 428 kts | 225° |
| 2026-05-01 12:46 | 41.10200 | 5.87305 | 33224 ft | 423 kts | 225° |
| 2026-05-01 12:46 | 41.08007 | 5.84714 | 32829 ft | 421 kts | 225° |
| 2026-05-01 12:46 | 41.05825 | 5.82141 | 32440 ft | 419 kts | 225° |
| 2026-05-01 12:46 | 41.03652 | 5.79584 | 32056 ft | 417 kts | 225° |
| 2026-05-01 12:47 | 41.01516 | 5.77071 | 31680 ft | 415 kts | 225° |
| 2026-05-01 12:47 | 40.99362 | 5.74535 | 31304 ft | 414 kts | 225° |
| 2026-05-01 12:47 | 40.97215 | 5.72008 | 30936 ft | 412 kts | 224° |
| 2026-05-01 12:47 | 40.95106 | 5.69463 | 30564 ft | 409 kts | 229° |
| 2026-05-01 12:48 | 40.93342 | 5.66549 | 30186 ft | 405 kts | 237° |
| 2026-05-01 12:48 | 40.91724 | 5.63511 | 29764 ft | 403 kts | 237° |
| 2026-05-01 12:48 | 40.90109 | 5.60492 | 29352 ft | 402 kts | 237° |
| 2026-05-01 12:48 | 40.88499 | 5.57482 | 28948 ft | 400 kts | 237° |
| 2026-05-01 12:49 | 40.86894 | 5.54488 | 28535 ft | 398 kts | 236° |
| 2026-05-01 12:49 | 40.85296 | 5.51514 | 28134 ft | 396 kts | 236° |
| 2026-05-01 12:49 | 40.83702 | 5.48555 | 27742 ft | 394 kts | 236° |
| 2026-05-01 12:49 | 40.82115 | 5.45612 | 27353 ft | 393 kts | 237° |
| 2026-05-01 12:50 | 40.80559 | 5.42719 | 26978 ft | 391 kts | 236° |
| 2026-05-01 12:50 | 40.78990 | 5.39797 | 26608 ft | 389 kts | 237° |
| 2026-05-01 12:50 | 40.77429 | 5.36888 | 26206 ft | 387 kts | 236° |
| 2026-05-01 12:50 | 40.75870 | 5.33988 | 25726 ft | 388 kts | 236° |
| 2026-05-01 12:51 | 40.74306 | 5.31088 | 25235 ft | 388 kts | 235° |
| 2026-05-01 12:51 | 40.72754 | 5.28218 | 24756 ft | 379 kts | 236° |
| 2026-05-01 12:51 | 40.69774 | 5.22725 | 23835 ft | 363 kts | 236° |
| 2026-05-01 12:52 | 40.68305 | 5.20018 | 23351 ft | 362 kts | 236° |
| 2026-05-01 12:52 | 40.65431 | 5.14721 | 23247 ft | 357 kts | 236° |
| 2026-05-01 12:52 | 40.63983 | 5.12058 | 23244 ft | 358 kts | 236° |
| 2026-05-01 12:53 | 40.61082 | 5.06733 | 23217 ft | 358 kts | 236° |
| 2026-05-01 12:53 | 40.59634 | 5.04075 | 23008 ft | 356 kts | 236° |
| 2026-05-01 12:53 | 40.58190 | 5.01425 | 22981 ft | 356 kts | 237° |
| 2026-05-01 12:54 | 40.56743 | 4.98772 | 22799 ft | 357 kts | 235° |
| 2026-05-01 12:54 | 40.53863 | 4.93506 | 22268 ft | 352 kts | 235° |
| 2026-05-01 12:54 | 40.52452 | 4.90933 | 22011 ft | 351 kts | 236° |
| 2026-05-01 12:55 | 40.49608 | 4.85753 | 21497 ft | 349 kts | 236° |
| 2026-05-01 12:55 | 40.48191 | 4.83171 | 21242 ft | 348 kts | 235° |
| 2026-05-01 12:55 | 40.46778 | 4.80600 | 20993 ft | 347 kts | 236° |
| 2026-05-01 12:56 | 40.45371 | 4.78036 | 20741 ft | 346 kts | 236° |
| 2026-05-01 12:56 | 40.43969 | 4.75480 | 20495 ft | 345 kts | 235° |
| 2026-05-01 12:56 | 40.42569 | 4.72932 | 20250 ft | 344 kts | 235° |
| 2026-05-01 12:56 | 40.41189 | 4.70427 | 20005 ft | 343 kts | 235° |
| 2026-05-01 12:57 | 40.39801 | 4.67906 | 19768 ft | 342 kts | 234° |
| 2026-05-01 12:57 | 40.37019 | 4.62866 | 19283 ft | 340 kts | 235° |
| 2026-05-01 12:57 | 40.35634 | 4.60365 | 19057 ft | 338 kts | 235° |
| 2026-05-01 12:58 | 40.34252 | 4.57872 | 18825 ft | 338 kts | 236° |
| 2026-05-01 12:58 | 40.32875 | 4.55386 | 18590 ft | 334 kts | 235° |
| 2026-05-01 12:58 | 40.31515 | 4.52933 | 18334 ft | 332 kts | 235° |
| 2026-05-01 12:59 | 40.28813 | 4.48058 | 17799 ft | 329 kts | 235° |
| 2026-05-01 12:59 | 40.27490 | 4.45668 | 17540 ft | 328 kts | 235° |
| 2026-05-01 12:59 | 40.24816 | 4.40858 | 17025 ft | 326 kts | 235° |
| 2026-05-01 13:00 | 40.22152 | 4.36088 | 16510 ft | 323 kts | 235° |
| 2026-05-01 13:00 | 40.20829 | 4.33714 | 16257 ft | 322 kts | 235° |
| 2026-05-01 13:01 | 40.18640 | 4.29794 | 15840 ft | 320 kts | 235° |
| 2026-05-01 13:01 | 40.16901 | 4.26685 | 15516 ft | 318 kts | 235° |
| 2026-05-01 13:01 | 40.14307 | 4.22044 | 15031 ft | 315 kts | 234° |
| 2026-05-01 13:02 | 40.13018 | 4.19737 | 14788 ft | 314 kts | 234° |
| 2026-05-01 13:07 | 39.87615 | 3.74710 | 9631 ft | 286 kts | 233° |
| 2026-05-01 13:07 | 39.86450 | 3.72661 | 9375 ft | 285 kts | 231° |
| 2026-05-01 13:07 | 39.85272 | 3.70594 | 9115 ft | 284 kts | 232° |
| 2026-05-01 13:08 | 39.84096 | 3.68527 | 8864 ft | 284 kts | 232° |
| 2026-05-01 13:08 | 39.82921 | 3.66462 | 8610 ft | 284 kts | 231° |
| 2026-05-01 13:08 | 39.81745 | 3.64404 | 8359 ft | 283 kts | 232° |
| 2026-05-01 13:08 | 39.80572 | 3.62350 | 8110 ft | 283 kts | 231° |
| 2026-05-01 13:09 | 39.79403 | 3.60302 | 7864 ft | 282 kts | 231° |
| 2026-05-01 13:09 | 39.78237 | 3.58255 | 7616 ft | 281 kts | 231° |
| 2026-05-01 13:09 | 39.77072 | 3.56212 | 7371 ft | 280 kts | 231° |
| 2026-05-01 13:09 | 39.75929 | 3.54206 | 7128 ft | 280 kts | 231° |
| 2026-05-01 13:10 | 39.74771 | 3.52176 | 6900 ft | 279 kts | 230° |
| 2026-05-01 13:10 | 39.73614 | 3.50152 | 6664 ft | 279 kts | 230° |
| 2026-05-01 13:10 | 39.72457 | 3.48133 | 6410 ft | 278 kts | 230° |
| 2026-05-01 13:10 | 39.71304 | 3.46121 | 6157 ft | 277 kts | 231° |
| 2026-05-01 13:11 | 39.70163 | 3.44127 | 5906 ft | 277 kts | 232° |
| 2026-05-01 13:11 | 39.69195 | 3.41955 | 5651 ft | 278 kts | 241° |
| 2026-05-01 13:11 | 39.68352 | 3.39741 | 5405 ft | 277 kts | 240° |
| 2026-05-01 13:11 | 39.67492 | 3.37500 | 5160 ft | 277 kts | 241° |
| 2026-05-01 13:12 | 39.66633 | 3.35273 | 4904 ft | 276 kts | 240° |
| 2026-05-01 13:12 | 39.65774 | 3.33049 | 4660 ft | 275 kts | 241° |
| 2026-05-01 13:12 | 39.64920 | 3.30837 | 4404 ft | 274 kts | 241° |
| 2026-05-01 13:12 | 39.64066 | 3.28630 | 4153 ft | 273 kts | 240° |
| 2026-05-01 13:13 | 39.63211 | 3.26421 | 3905 ft | 273 kts | 241° |
| 2026-05-01 13:13 | 39.62358 | 3.24216 | 3651 ft | 273 kts | 242° |
| 2026-05-01 13:13 | 39.61510 | 3.22022 | 3407 ft | 272 kts | 242° |
| 2026-05-01 13:13 | 39.60671 | 3.19845 | 3154 ft | 270 kts | 242° |
| 2026-05-01 13:14 | 39.59839 | 3.17681 | 2903 ft | 271 kts | 242° |
| 2026-05-01 13:14 | 39.59006 | 3.15519 | 2656 ft | 270 kts | 241° |
| 2026-05-01 13:14 | 39.58243 | 3.13547 | 2421 ft | 270 kts | 241° |
| 2026-05-01 13:14 | 39.57398 | 3.11372 | 2166 ft | 269 kts | 242° |
| 2026-05-01 13:15 | 39.56578 | 3.09261 | 1918 ft | 268 kts | 242° |
| 2026-05-01 13:15 | 39.55741 | 3.07108 | 1763 ft | 267 kts | 242° |
| 2026-05-01 13:15 | 39.54907 | 3.04967 | 1979 ft | 268 kts | 243° |
| 2026-05-01 13:15 | 39.54059 | 3.02792 | 2173 ft | 272 kts | 242° |
| 2026-05-01 13:16 | 39.53199 | 3.00589 | 2298 ft | 276 kts | 242° |
| 2026-05-01 13:16 | 39.52340 | 2.98379 | 2313 ft | 272 kts | 242° |
| 2026-05-01 13:16 | 39.51564 | 2.96175 | 2308 ft | 274 kts | 253° |
| 2026-05-01 13:17 | 39.50684 | 2.88916 | 2275 ft | 275 kts | 262° |
| 2026-05-01 13:17 | 39.50415 | 2.86451 | 1879 ft | 274 kts | 261° |
| 2026-05-01 13:18 | 39.49930 | 2.81958 | 1705 ft | 227 kts | 260° |
| 2026-05-01 13:18 | 39.49719 | 2.80017 | 1705 ft | 211 kts | 262° |
| 2026-05-01 13:18 | 39.49509 | 2.78130 | 1710 ft | 213 kts | 261° |
| 2026-05-01 13:18 | 39.49264 | 2.76255 | 1715 ft | 208 kts | 256° |
| 2026-05-01 13:19 | 39.48834 | 2.74521 | 1707 ft | 204 kts | 240° |
| 2026-05-01 13:19 | 39.48095 | 2.72940 | 1708 ft | 207 kts | 233° |
| 2026-05-01 13:19 | 39.46469 | 2.69903 | 1732 ft | 193 kts | 233° |
| 2026-05-01 13:20 | 39.45742 | 2.68573 | 1709 ft | 171 kts | 232° |
| 2026-05-01 13:20 | 39.45087 | 2.67317 | 1725 ft | 175 kts | 232° |
| 2026-05-01 13:20 | 39.44381 | 2.65976 | 1712 ft | 180 kts | 232° |
| 2026-05-01 13:21 | 39.43713 | 2.63158 | 1697 ft | 169 kts | 284° |
| 2026-05-01 13:21 | 39.44240 | 2.61910 | 1695 ft | 157 kts | 316° |
| 2026-05-01 13:21 | 39.45148 | 2.61205 | 1700 ft | 152 kts | 348° |
| 2026-05-01 13:21 | 39.46163 | 2.61152 | 1735 ft | 144 kts | 12° |
| 2026-05-01 13:22 | 39.47146 | 2.61305 | 1721 ft | 143 kts | 10° |
| 2026-05-01 13:22 | 39.48129 | 2.61453 | 1711 ft | 143 kts | 9° |
| 2026-05-01 13:22 | 39.49119 | 2.61605 | 1716 ft | 142 kts | 11° |
| 2026-05-01 13:22 | 39.50045 | 2.62022 | 1718 ft | 140 kts | 34° |
| 2026-05-01 13:23 | 39.50757 | 2.62838 | 1645 ft | 138 kts | 62° |
| 2026-05-01 13:23 | 39.51259 | 2.63866 | 1377 ft | 135 kts | 62° |
| 2026-05-01 13:23 | 39.51771 | 2.64903 | 1161 ft | 139 kts | 61° |
| 2026-05-01 13:23 | 39.52284 | 2.65963 | 979 ft | 138 kts | 64° |
| 2026-05-01 13:24 | 39.52808 | 2.67006 | 769 ft | 137 kts | 60° |
| 2026-05-01 13:24 | 39.53318 | 2.68005 | 660 ft | 131 kts | 60° |
| 2026-05-01 13:24 | 39.53786 | 2.69018 | 485 ft | 132 kts | 65° |
| 2026-05-01 13:25 | 39.54720 | 2.71019 | 103 ft | 128 kts | 60° |
| 2026-05-01 13:25 | 39.55140 | 2.71926 | 41 ft | 106 kts | 60° |
| 2026-05-01 13:25 | 39.55429 | 2.72582 | 38 ft | 59 kts | 59° |
| 2026-05-01 13:25 | 39.55500 | 2.72897 | 38 ft | 25 kts | 95° |
| 2026-05-01 13:26 | 39.55497 | 2.72959 | 38 ft | 1 kts | 92° |
| 2026-05-01 13:26 | 39.55497 | 2.72981 | 38 ft | 4 kts | 92° |
| 2026-05-01 13:26 | 39.55496 | 2.73031 | 38 ft | 7 kts | 89° |
| 2026-05-01 13:26 | 39.55500 | 2.73116 | 38 ft | 13 kts | 80° |
| 2026-05-01 13:27 | 39.55537 | 2.73243 | 38 ft | 17 kts | 65° |
| 2026-05-01 13:27 | 39.55601 | 2.73377 | 38 ft | 19 kts | 59° |
| 2026-05-01 13:27 | 39.55448 | 2.73630 | 38 ft | 23 kts | 148° |
| 2026-05-01 13:28 | 39.55187 | 2.73814 | 38 ft | 15 kts | 211° |
| 2026-05-01 13:28 | 39.55174 | 2.73797 | 37 ft | 0 kts | 233° |
| 2026-05-01 13:29 | 39.55176 | 2.73727 | 38 ft | 9 kts | 279° |
| 2026-05-01 13:29 | 39.55106 | 2.73544 | 38 ft | 14 kts | 239° |
| 2026-05-01 13:30 | 39.55018 | 2.73490 | 38 ft | 0 kts | 168° |